sensor_id;sensor_type;location;lat;lon;timestamp;P1;durP1;ratioP1;P2;durP2;ratioP2
44248;SDS011;29923;48.718;9.272;2023-03-09T00:00:48;6.55;;;1.30;;
44248;SDS011;29923;48.718;9.272;2023-03-09T00:03:14;7.97;;;1.65;;
44248;SDS011;29923;48.718;9.272;2023-03-09T00:05:42;7.95;;;1.70;;
44248;SDS011;29923;48.718;9.272;2023-03-09T00:08:08;4.28;;;1.48;;
44248;SDS011;29923;48.718;9.272;2023-03-09T00:10:34;5.25;;;1.88;;
44248;SDS011;29923;48.718;9.272;2023-03-09T00:12:59;10.27;;;1.70;;
44248;SDS011;29923;48.718;9.272;2023-03-09T00:15:24;5.97;;;1.80;;
44248;SDS011;29923;48.718;9.272;2023-03-09T00:17:50;6.93;;;1.58;;
44248;SDS011;29923;48.718;9.272;2023-03-09T00:20:15;4.20;;;1.33;;
44248;SDS011;29923;48.718;9.272;2023-03-09T00:22:47;4.20;;;1.20;;
44248;SDS011;29923;48.718;9.272;2023-03-09T00:25:14;2.95;;;0.70;;
44248;SDS011;29923;48.718;9.272;2023-03-09T00:27:42;8.82;;;1.70;;
44248;SDS011;29923;48.718;9.272;2023-03-09T00:30:12;4.28;;;0.80;;
44248;SDS011;29923;48.718;9.272;2023-03-09T00:32:38;8.25;;;1.40;;
44248;SDS011;29923;48.718;9.272;2023-03-09T00:35:04;4.43;;;1.10;;
44248;SDS011;29923;48.718;9.272;2023-03-09T00:37:30;1.73;;;0.77;;
44248;SDS011;29923;48.718;9.272;2023-03-09T00:39:55;3.83;;;0.50;;
44248;SDS011;29923;48.718;9.272;2023-03-09T00:42:21;3.47;;;0.52;;
44248;SDS011;29923;48.718;9.272;2023-03-09T00:44:46;1.80;;;0.40;;
44248;SDS011;29923;48.718;9.272;2023-03-09T00:47:11;0.60;;;0.47;;
44248;SDS011;29923;48.718;9.272;2023-03-09T00:49:37;2.03;;;0.52;;
44248;SDS011;29923;48.718;9.272;2023-03-09T00:52:02;1.73;;;0.40;;
44248;SDS011;29923;48.718;9.272;2023-03-09T00:54:27;1.23;;;0.50;;
44248;SDS011;29923;48.718;9.272;2023-03-09T00:56:53;8.10;;;0.82;;
44248;SDS011;29923;48.718;9.272;2023-03-09T00:59:18;0.80;;;0.40;;
44248;SDS011;29923;48.718;9.272;2023-03-09T01:01:43;1.50;;;0.63;;
44248;SDS011;29923;48.718;9.272;2023-03-09T01:04:09;2.35;;;0.55;;
44248;SDS011;29923;48.718;9.272;2023-03-09T01:06:34;1.35;;;0.47;;
44248;SDS011;29923;48.718;9.272;2023-03-09T01:08:59;3.45;;;0.40;;
44248;SDS011;29923;48.718;9.272;2023-03-09T01:11:25;1.33;;;0.63;;
44248;SDS011;29923;48.718;9.272;2023-03-09T01:13:51;2.15;;;0.50;;
44248;SDS011;29923;48.718;9.272;2023-03-09T01:16:17;1.92;;;0.38;;
44248;SDS011;29923;48.718;9.272;2023-03-09T01:18:42;0.20;;;0.20;;
44248;SDS011;29923;48.718;9.272;2023-03-09T01:21:08;1.00;;;0.50;;
44248;SDS011;29923;48.718;9.272;2023-03-09T01:23:35;1.08;;;0.30;;
44248;SDS011;29923;48.718;9.272;2023-03-09T01:26:01;1.75;;;0.20;;
44248;SDS011;29923;48.718;9.272;2023-03-09T01:28:27;0.40;;;0.30;;
44248;SDS011;29923;48.718;9.272;2023-03-09T01:30:52;1.23;;;0.20;;
44248;SDS011;29923;48.718;9.272;2023-03-09T01:33:17;1.15;;;0.20;;
44248;SDS011;29923;48.718;9.272;2023-03-09T01:35:43;3.10;;;0.28;;
44248;SDS011;29923;48.718;9.272;2023-03-09T01:38:08;0.88;;;0.30;;
44248;SDS011;29923;48.718;9.272;2023-03-09T01:40:33;0.22;;;0.20;;
44248;SDS011;29923;48.718;9.272;2023-03-09T01:43:00;0.20;;;0.20;;
44248;SDS011;29923;48.718;9.272;2023-03-09T01:47:52;0.20;;;0.20;;
44248;SDS011;29923;48.718;9.272;2023-03-09T01:50:20;1.02;;;0.17;;
44248;SDS011;29923;48.718;9.272;2023-03-09T01:52:47;0.28;;;0.28;;
44248;SDS011;29923;48.718;9.272;2023-03-09T01:55:16;4.78;;;0.47;;
44248;SDS011;29923;48.718;9.272;2023-03-09T01:57:48;0.25;;;0.20;;
44248;SDS011;29923;48.718;9.272;2023-03-09T02:00:18;0.38;;;0.17;;
44248;SDS011;29923;48.718;9.272;2023-03-09T02:02:45;0.65;;;0.43;;
44248;SDS011;29923;48.718;9.272;2023-03-09T02:05:18;0.20;;;0.20;;
44248;SDS011;29923;48.718;9.272;2023-03-09T02:07:47;0.77;;;0.25;;
44248;SDS011;29923;48.718;9.272;2023-03-09T02:10:16;0.82;;;0.50;;
44248;SDS011;29923;48.718;9.272;2023-03-09T02:12:46;0.55;;;0.20;;
44248;SDS011;29923;48.718;9.272;2023-03-09T02:15:18;1.55;;;0.20;;
44248;SDS011;29923;48.718;9.272;2023-03-09T02:17:44;0.20;;;0.20;;
44248;SDS011;29923;48.718;9.272;2023-03-09T02:22:36;0.70;;;0.20;;
44248;SDS011;29923;48.718;9.272;2023-03-09T02:27:45;0.90;;;0.65;;
44248;SDS011;29923;48.718;9.272;2023-03-09T02:30:11;0.20;;;0.20;;
44248;SDS011;29923;48.718;9.272;2023-03-09T02:32:36;2.90;;;0.20;;
44248;SDS011;29923;48.718;9.272;2023-03-09T02:35:02;0.60;;;0.35;;
44248;SDS011;29923;48.718;9.272;2023-03-09T02:37:32;1.23;;;0.35;;
44248;SDS011;29923;48.718;9.272;2023-03-09T02:40:01;0.40;;;0.30;;
44248;SDS011;29923;48.718;9.272;2023-03-09T02:42:44;0.70;;;0.25;;
44248;SDS011;29923;48.718;9.272;2023-03-09T02:45:10;0.60;;;0.10;;
44248;SDS011;29923;48.718;9.272;2023-03-09T02:47:37;0.25;;;0.17;;
44248;SDS011;29923;48.718;9.272;2023-03-09T02:50:04;0.20;;;0.20;;
44248;SDS011;29923;48.718;9.272;2023-03-09T02:52:31;1.45;;;0.20;;
44248;SDS011;29923;48.718;9.272;2023-03-09T02:54:56;0.55;;;0.20;;
44248;SDS011;29923;48.718;9.272;2023-03-09T02:57:21;0.20;;;0.10;;
44248;SDS011;29923;48.718;9.272;2023-03-09T02:59:47;2.42;;;0.30;;
44248;SDS011;29923;48.718;9.272;2023-03-09T03:02:12;0.10;;;0.10;;
44248;SDS011;29923;48.718;9.272;2023-03-09T03:04:37;1.65;;;0.20;;
44248;SDS011;29923;48.718;9.272;2023-03-09T03:07:03;0.38;;;0.20;;
44248;SDS011;29923;48.718;9.272;2023-03-09T03:09:28;0.50;;;0.20;;
44248;SDS011;29923;48.718;9.272;2023-03-09T03:11:53;1.90;;;0.38;;
44248;SDS011;29923;48.718;9.272;2023-03-09T03:14:19;1.15;;;0.40;;
44248;SDS011;29923;48.718;9.272;2023-03-09T03:16:44;1.33;;;0.30;;
44248;SDS011;29923;48.718;9.272;2023-03-09T03:19:09;1.60;;;0.50;;
44248;SDS011;29923;48.718;9.272;2023-03-09T03:21:35;0.50;;;0.30;;
44248;SDS011;29923;48.718;9.272;2023-03-09T03:24:00;0.70;;;0.28;;
44248;SDS011;29923;48.718;9.272;2023-03-09T03:26:25;0.88;;;0.40;;
44248;SDS011;29923;48.718;9.272;2023-03-09T03:28:51;1.02;;;0.70;;
44248;SDS011;29923;48.718;9.272;2023-03-09T03:31:16;1.42;;;0.30;;
44248;SDS011;29923;48.718;9.272;2023-03-09T03:33:41;1.45;;;0.63;;
44248;SDS011;29923;48.718;9.272;2023-03-09T03:36:07;0.95;;;0.40;;
44248;SDS011;29923;48.718;9.272;2023-03-09T03:38:32;1.35;;;0.40;;
44248;SDS011;29923;48.718;9.272;2023-03-09T03:40:58;2.47;;;0.55;;
44248;SDS011;29923;48.718;9.272;2023-03-09T03:43:23;0.65;;;0.20;;
44248;SDS011;29923;48.718;9.272;2023-03-09T03:45:48;1.88;;;0.40;;
44248;SDS011;29923;48.718;9.272;2023-03-09T03:48:14;0.10;;;0.10;;
44248;SDS011;29923;48.718;9.272;2023-03-09T03:50:39;0.30;;;0.20;;
44248;SDS011;29923;48.718;9.272;2023-03-09T03:53:04;0.10;;;0.10;;
44248;SDS011;29923;48.718;9.272;2023-03-09T03:55:30;0.30;;;0.20;;
44248;SDS011;29923;48.718;9.272;2023-03-09T03:57:55;0.10;;;0.10;;
44248;SDS011;29923;48.718;9.272;2023-03-09T04:00:21;1.85;;;0.17;;
44248;SDS011;29923;48.718;9.272;2023-03-09T04:02:47;1.35;;;0.20;;
44248;SDS011;29923;48.718;9.272;2023-03-09T04:05:12;2.28;;;0.30;;
44248;SDS011;29923;48.718;9.272;2023-03-09T04:07:38;3.50;;;0.40;;
44248;SDS011;29923;48.718;9.272;2023-03-09T04:10:03;0.82;;;0.35;;
44248;SDS011;29923;48.718;9.272;2023-03-09T04:12:29;1.48;;;0.50;;
44248;SDS011;29923;48.718;9.272;2023-03-09T04:14:54;6.88;;;1.58;;
44248;SDS011;29923;48.718;9.272;2023-03-09T04:17:20;1.85;;;0.50;;
44248;SDS011;29923;48.718;9.272;2023-03-09T04:19:45;2.05;;;0.95;;
44248;SDS011;29923;48.718;9.272;2023-03-09T04:22:11;2.85;;;0.60;;
44248;SDS011;29923;48.718;9.272;2023-03-09T04:24:36;3.67;;;0.70;;
44248;SDS011;29923;48.718;9.272;2023-03-09T04:27:01;4.72;;;1.00;;
44248;SDS011;29923;48.718;9.272;2023-03-09T04:29:27;1.35;;;0.57;;
44248;SDS011;29923;48.718;9.272;2023-03-09T04:31:52;3.38;;;0.80;;
44248;SDS011;29923;48.718;9.272;2023-03-09T04:34:17;4.60;;;0.98;;
44248;SDS011;29923;48.718;9.272;2023-03-09T04:36:43;6.00;;;0.90;;
44248;SDS011;29923;48.718;9.272;2023-03-09T04:39:08;7.90;;;1.58;;
44248;SDS011;29923;48.718;9.272;2023-03-09T04:41:34;7.15;;;1.73;;
44248;SDS011;29923;48.718;9.272;2023-03-09T04:44:00;11.63;;;1.10;;
44248;SDS011;29923;48.718;9.272;2023-03-09T04:46:25;6.30;;;1.08;;
44248;SDS011;29923;48.718;9.272;2023-03-09T04:48:50;8.27;;;1.17;;
44248;SDS011;29923;48.718;9.272;2023-03-09T04:51:16;5.90;;;1.60;;
44248;SDS011;29923;48.718;9.272;2023-03-09T04:53:41;10.95;;;1.83;;
44248;SDS011;29923;48.718;9.272;2023-03-09T04:56:07;6.03;;;0.90;;
44248;SDS011;29923;48.718;9.272;2023-03-09T04:58:32;6.40;;;1.88;;
44248;SDS011;29923;48.718;9.272;2023-03-09T05:00:57;10.20;;;1.60;;
44248;SDS011;29923;48.718;9.272;2023-03-09T05:03:25;14.20;;;2.15;;
44248;SDS011;29923;48.718;9.272;2023-03-09T05:05:51;9.85;;;1.70;;
44248;SDS011;29923;48.718;9.272;2023-03-09T05:08:16;9.90;;;0.82;;
44248;SDS011;29923;48.718;9.272;2023-03-09T05:10:41;9.45;;;1.75;;
44248;SDS011;29923;48.718;9.272;2023-03-09T05:13:07;2.55;;;1.02;;
44248;SDS011;29923;48.718;9.272;2023-03-09T05:15:32;15.73;;;1.60;;
44248;SDS011;29923;48.718;9.272;2023-03-09T05:17:57;4.32;;;0.95;;
44248;SDS011;29923;48.718;9.272;2023-03-09T05:20:23;10.25;;;1.67;;
44248;SDS011;29923;48.718;9.272;2023-03-09T05:22:48;6.43;;;1.30;;
44248;SDS011;29923;48.718;9.272;2023-03-09T05:25:14;10.52;;;1.75;;
44248;SDS011;29923;48.718;9.272;2023-03-09T05:27:40;9.90;;;1.92;;
44248;SDS011;29923;48.718;9.272;2023-03-09T05:30:05;6.13;;;1.50;;
44248;SDS011;29923;48.718;9.272;2023-03-09T05:32:31;7.75;;;2.38;;
44248;SDS011;29923;48.718;9.272;2023-03-09T05:34:56;9.55;;;1.73;;
44248;SDS011;29923;48.718;9.272;2023-03-09T05:37:23;10.18;;;1.92;;
44248;SDS011;29923;48.718;9.272;2023-03-09T05:39:48;9.13;;;2.28;;
44248;SDS011;29923;48.718;9.272;2023-03-09T05:42:13;13.15;;;3.28;;
44248;SDS011;29923;48.718;9.272;2023-03-09T05:44:39;28.15;;;16.85;;
44248;SDS011;29923;48.718;9.272;2023-03-09T05:47:04;19.52;;;4.05;;
44248;SDS011;29923;48.718;9.272;2023-03-09T05:49:30;9.23;;;2.00;;
44248;SDS011;29923;48.718;9.272;2023-03-09T05:51:56;10.43;;;2.35;;
44248;SDS011;29923;48.718;9.272;2023-03-09T05:54:22;7.57;;;1.65;;
44248;SDS011;29923;48.718;9.272;2023-03-09T05:56:47;11.48;;;2.08;;
44248;SDS011;29923;48.718;9.272;2023-03-09T05:59:13;7.90;;;1.83;;
44248;SDS011;29923;48.718;9.272;2023-03-09T06:01:38;11.70;;;2.75;;
44248;SDS011;29923;48.718;9.272;2023-03-09T06:04:04;11.93;;;2.30;;
44248;SDS011;29923;48.718;9.272;2023-03-09T06:06:29;9.57;;;1.77;;
44248;SDS011;29923;48.718;9.272;2023-03-09T06:08:55;8.00;;;1.90;;
44248;SDS011;29923;48.718;9.272;2023-03-09T06:11:20;14.93;;;2.45;;
44248;SDS011;29923;48.718;9.272;2023-03-09T06:13:46;8.15;;;2.25;;
44248;SDS011;29923;48.718;9.272;2023-03-09T06:16:13;12.75;;;1.92;;
44248;SDS011;29923;48.718;9.272;2023-03-09T06:18:39;11.43;;;2.22;;
44248;SDS011;29923;48.718;9.272;2023-03-09T06:21:05;7.10;;;2.15;;
44248;SDS011;29923;48.718;9.272;2023-03-09T06:23:31;11.18;;;1.95;;
44248;SDS011;29923;48.718;9.272;2023-03-09T06:25:57;9.95;;;2.08;;
44248;SDS011;29923;48.718;9.272;2023-03-09T06:28:23;11.45;;;2.10;;
44248;SDS011;29923;48.718;9.272;2023-03-09T06:30:49;13.07;;;2.40;;
44248;SDS011;29923;48.718;9.272;2023-03-09T06:33:14;10.30;;;2.78;;
44248;SDS011;29923;48.718;9.272;2023-03-09T06:35:40;16.63;;;2.20;;
44248;SDS011;29923;48.718;9.272;2023-03-09T06:38:06;19.80;;;3.05;;
44248;SDS011;29923;48.718;9.272;2023-03-09T06:40:32;9.10;;;2.83;;
44248;SDS011;29923;48.718;9.272;2023-03-09T06:42:57;10.98;;;2.75;;
44248;SDS011;29923;48.718;9.272;2023-03-09T06:45:23;11.35;;;2.35;;
44248;SDS011;29923;48.718;9.272;2023-03-09T06:47:48;15.30;;;3.30;;
44248;SDS011;29923;48.718;9.272;2023-03-09T06:50:13;16.20;;;3.30;;
44248;SDS011;29923;48.718;9.272;2023-03-09T06:52:39;14.48;;;5.57;;
44248;SDS011;29923;48.718;9.272;2023-03-09T06:55:05;10.57;;;2.30;;
44248;SDS011;29923;48.718;9.272;2023-03-09T06:57:30;7.25;;;2.10;;
44248;SDS011;29923;48.718;9.272;2023-03-09T06:59:56;8.35;;;1.92;;
44248;SDS011;29923;48.718;9.272;2023-03-09T07:02:22;7.85;;;1.83;;
44248;SDS011;29923;48.718;9.272;2023-03-09T07:04:47;12.43;;;2.30;;
44248;SDS011;29923;48.718;9.272;2023-03-09T07:07:12;16.98;;;2.50;;
44248;SDS011;29923;48.718;9.272;2023-03-09T07:09:38;9.23;;;2.10;;
44248;SDS011;29923;48.718;9.272;2023-03-09T07:12:03;7.38;;;1.90;;
44248;SDS011;29923;48.718;9.272;2023-03-09T07:14:29;10.85;;;2.22;;
44248;SDS011;29923;48.718;9.272;2023-03-09T07:16:55;17.42;;;2.85;;
44248;SDS011;29923;48.718;9.272;2023-03-09T07:19:21;8.65;;;2.08;;
44248;SDS011;29923;48.718;9.272;2023-03-09T07:21:47;9.80;;;1.65;;
44248;SDS011;29923;48.718;9.272;2023-03-09T07:24:12;16.52;;;2.20;;
44248;SDS011;29923;48.718;9.272;2023-03-09T07:26:38;12.32;;;2.85;;
44248;SDS011;29923;48.718;9.272;2023-03-09T07:29:03;8.48;;;1.48;;
44248;SDS011;29923;48.718;9.272;2023-03-09T07:31:28;9.05;;;1.92;;
44248;SDS011;29923;48.718;9.272;2023-03-09T07:33:55;17.25;;;2.28;;
44248;SDS011;29923;48.718;9.272;2023-03-09T07:36:21;7.78;;;1.50;;
44248;SDS011;29923;48.718;9.272;2023-03-09T07:38:46;10.15;;;2.10;;
44248;SDS011;29923;48.718;9.272;2023-03-09T07:41:12;11.68;;;2.22;;
44248;SDS011;29923;48.718;9.272;2023-03-09T07:43:38;13.85;;;2.08;;
44248;SDS011;29923;48.718;9.272;2023-03-09T07:46:08;7.65;;;1.65;;
44248;SDS011;29923;48.718;9.272;2023-03-09T07:48:37;6.78;;;1.60;;
44248;SDS011;29923;48.718;9.272;2023-03-09T07:51:03;5.57;;;2.78;;
44248;SDS011;29923;48.718;9.272;2023-03-09T07:53:29;10.68;;;2.22;;
44248;SDS011;29923;48.718;9.272;2023-03-09T07:55:56;8.93;;;2.08;;
44248;SDS011;29923;48.718;9.272;2023-03-09T07:58:22;7.15;;;1.08;;
44248;SDS011;29923;48.718;9.272;2023-03-09T08:00:47;9.68;;;1.73;;
44248;SDS011;29923;48.718;9.272;2023-03-09T08:03:12;14.00;;;3.00;;
44248;SDS011;29923;48.718;9.272;2023-03-09T08:05:39;7.20;;;1.70;;
44248;SDS011;29923;48.718;9.272;2023-03-09T08:08:07;5.03;;;1.52;;
44248;SDS011;29923;48.718;9.272;2023-03-09T08:10:33;12.70;;;2.13;;
44248;SDS011;29923;48.718;9.272;2023-03-09T08:12:59;4.35;;;1.50;;
44248;SDS011;29923;48.718;9.272;2023-03-09T08:15:24;9.52;;;2.13;;
44248;SDS011;29923;48.718;9.272;2023-03-09T08:17:49;8.45;;;1.42;;
44248;SDS011;29923;48.718;9.272;2023-03-09T08:20:15;6.68;;;1.20;;
44248;SDS011;29923;48.718;9.272;2023-03-09T08:22:41;5.80;;;1.13;;
44248;SDS011;29923;48.718;9.272;2023-03-09T08:25:07;1.50;;;0.80;;
44248;SDS011;29923;48.718;9.272;2023-03-09T08:27:40;5.50;;;1.10;;
44248;SDS011;29923;48.718;9.272;2023-03-09T08:30:07;2.10;;;0.90;;
44248;SDS011;29923;48.718;9.272;2023-03-09T08:32:33;6.47;;;1.30;;
44248;SDS011;29923;48.718;9.272;2023-03-09T08:34:59;5.60;;;0.98;;
44248;SDS011;29923;48.718;9.272;2023-03-09T08:37:24;4.05;;;0.90;;
44248;SDS011;29923;48.718;9.272;2023-03-09T08:39:50;8.20;;;2.47;;
44248;SDS011;29923;48.718;9.272;2023-03-09T08:42:16;3.45;;;0.85;;
44248;SDS011;29923;48.718;9.272;2023-03-09T08:44:42;9.20;;;1.33;;
44248;SDS011;29923;48.718;9.272;2023-03-09T08:47:07;8.07;;;1.42;;
44248;SDS011;29923;48.718;9.272;2023-03-09T08:49:32;6.55;;;0.90;;
44248;SDS011;29923;48.718;9.272;2023-03-09T08:51:58;1.85;;;0.55;;
44248;SDS011;29923;48.718;9.272;2023-03-09T08:54:23;4.13;;;1.52;;
44248;SDS011;29923;48.718;9.272;2023-03-09T08:56:48;4.20;;;0.88;;
44248;SDS011;29923;48.718;9.272;2023-03-09T08:59:14;4.53;;;1.10;;
44248;SDS011;29923;48.718;9.272;2023-03-09T09:01:39;4.43;;;0.82;;
44248;SDS011;29923;48.718;9.272;2023-03-09T09:04:04;1.20;;;0.40;;
44248;SDS011;29923;48.718;9.272;2023-03-09T09:06:30;7.93;;;1.35;;
44248;SDS011;29923;48.718;9.272;2023-03-09T09:08:55;2.25;;;0.70;;
44248;SDS011;29923;48.718;9.272;2023-03-09T09:11:20;3.03;;;0.70;;
44248;SDS011;29923;48.718;9.272;2023-03-09T09:13:46;2.28;;;0.80;;
44248;SDS011;29923;48.718;9.272;2023-03-09T09:16:12;4.10;;;1.20;;
44248;SDS011;29923;48.718;9.272;2023-03-09T09:18:39;4.88;;;0.80;;
44248;SDS011;29923;48.718;9.272;2023-03-09T09:21:06;2.53;;;0.90;;
44248;SDS011;29923;48.718;9.272;2023-03-09T09:23:33;5.00;;;1.05;;
44248;SDS011;29923;48.718;9.272;2023-03-09T09:25:59;1.70;;;0.60;;
44248;SDS011;29923;48.718;9.272;2023-03-09T09:28:24;6.53;;;1.15;;
44248;SDS011;29923;48.718;9.272;2023-03-09T09:30:56;2.58;;;0.85;;
44248;SDS011;29923;48.718;9.272;2023-03-09T09:33:23;5.78;;;1.10;;
44248;SDS011;29923;48.718;9.272;2023-03-09T09:35:59;5.82;;;1.20;;
44248;SDS011;29923;48.718;9.272;2023-03-09T09:38:29;3.97;;;0.88;;
44248;SDS011;29923;48.718;9.272;2023-03-09T09:40:55;6.18;;;1.08;;
44248;SDS011;29923;48.718;9.272;2023-03-09T09:43:23;4.88;;;1.20;;
44248;SDS011;29923;48.718;9.272;2023-03-09T09:45:49;8.65;;;1.67;;
44248;SDS011;29923;48.718;9.272;2023-03-09T09:48:16;3.05;;;1.40;;
44248;SDS011;29923;48.718;9.272;2023-03-09T09:56:18;1.65;;;0.73;;
44248;SDS011;29923;48.718;9.272;2023-03-09T09:58:53;4.93;;;1.20;;
44248;SDS011;29923;48.718;9.272;2023-03-09T10:01:21;6.55;;;1.20;;
44248;SDS011;29923;48.718;9.272;2023-03-09T10:03:51;3.92;;;0.88;;
44248;SDS011;29923;48.718;9.272;2023-03-09T10:06:18;1.02;;;0.43;;
44248;SDS011;29923;48.718;9.272;2023-03-09T10:13:59;3.35;;;0.50;;
44248;SDS011;29923;48.718;9.272;2023-03-09T10:16:29;3.42;;;0.70;;
44248;SDS011;29923;48.718;9.272;2023-03-09T10:19:00;5.90;;;1.58;;
44248;SDS011;29923;48.718;9.272;2023-03-09T10:21:34;6.50;;;1.08;;
44248;SDS011;29923;48.718;9.272;2023-03-09T10:24:28;3.70;;;0.90;;
44248;SDS011;29923;48.718;9.272;2023-03-09T10:27:05;2.67;;;0.80;;
44248;SDS011;29923;48.718;9.272;2023-03-09T10:29:42;1.55;;;0.60;;
44248;SDS011;29923;48.718;9.272;2023-03-09T10:32:20;1.42;;;0.98;;
44248;SDS011;29923;48.718;9.272;2023-03-09T10:34:52;6.90;;;1.15;;
44248;SDS011;29923;48.718;9.272;2023-03-09T10:37:23;5.25;;;1.10;;
44248;SDS011;29923;48.718;9.272;2023-03-09T10:39:50;8.90;;;1.42;;
44248;SDS011;29923;48.718;9.272;2023-03-09T10:42:22;8.32;;;1.20;;
44248;SDS011;29923;48.718;9.272;2023-03-09T10:47:54;3.63;;;1.08;;
44248;SDS011;29923;48.718;9.272;2023-03-09T10:50:21;5.70;;;1.52;;
44248;SDS011;29923;48.718;9.272;2023-03-09T10:52:50;3.80;;;1.23;;
44248;SDS011;29923;48.718;9.272;2023-03-09T10:57:53;1.58;;;0.65;;
44248;SDS011;29923;48.718;9.272;2023-03-09T11:00:23;3.42;;;0.90;;
44248;SDS011;29923;48.718;9.272;2023-03-09T11:02:52;3.13;;;0.82;;
44248;SDS011;29923;48.718;9.272;2023-03-09T11:05:20;5.07;;;1.15;;
44248;SDS011;29923;48.718;9.272;2023-03-09T11:07:50;4.32;;;1.05;;
44248;SDS011;29923;48.718;9.272;2023-03-09T11:10:25;8.98;;;0.95;;
44248;SDS011;29923;48.718;9.272;2023-03-09T11:12:53;8.48;;;1.25;;
44248;SDS011;29923;48.718;9.272;2023-03-09T11:15:24;11.18;;;2.72;;
44248;SDS011;29923;48.718;9.272;2023-03-09T11:17:57;6.55;;;1.00;;
44248;SDS011;29923;48.718;9.272;2023-03-09T11:20:25;4.43;;;1.15;;
44248;SDS011;29923;48.718;9.272;2023-03-09T11:23:09;10.65;;;2.30;;
44248;SDS011;29923;48.718;9.272;2023-03-09T11:31:22;7.63;;;1.98;;
44248;SDS011;29923;48.718;9.272;2023-03-09T11:33:49;9.38;;;1.25;;
44248;SDS011;29923;48.718;9.272;2023-03-09T11:36:19;3.72;;;1.08;;
44248;SDS011;29923;48.718;9.272;2023-03-09T11:38:45;5.38;;;1.40;;
44248;SDS011;29923;48.718;9.272;2023-03-09T11:43:56;8.90;;;1.00;;
44248;SDS011;29923;48.718;9.272;2023-03-09T11:46:27;4.30;;;1.30;;
44248;SDS011;29923;48.718;9.272;2023-03-09T11:48:54;6.82;;;1.50;;
44248;SDS011;29923;48.718;9.272;2023-03-09T11:51:41;7.22;;;1.52;;
44248;SDS011;29923;48.718;9.272;2023-03-09T11:54:25;5.65;;;1.00;;
44248;SDS011;29923;48.718;9.272;2023-03-09T11:56:54;3.47;;;0.95;;
44248;SDS011;29923;48.718;9.272;2023-03-09T11:59:21;1.27;;;0.50;;
44248;SDS011;29923;48.718;9.272;2023-03-09T12:04:40;8.05;;;1.40;;
44248;SDS011;29923;48.718;9.272;2023-03-09T12:12:47;6.93;;;1.40;;
44248;SDS011;29923;48.718;9.272;2023-03-09T12:18:21;4.45;;;1.27;;
44248;SDS011;29923;48.718;9.272;2023-03-09T12:20:52;6.82;;;0.90;;
44248;SDS011;29923;48.718;9.272;2023-03-09T12:24:01;11.23;;;1.77;;
44248;SDS011;29923;48.718;9.272;2023-03-09T12:28:36;1.23;;;0.68;;
44248;SDS011;29923;48.718;9.272;2023-03-09T12:31:02;3.88;;;1.00;;
44248;SDS011;29923;48.718;9.272;2023-03-09T12:36:21;5.80;;;1.42;;
44248;SDS011;29923;48.718;9.272;2023-03-09T12:41:57;3.58;;;0.70;;
44248;SDS011;29923;48.718;9.272;2023-03-09T12:49:49;5.40;;;0.95;;
44248;SDS011;29923;48.718;9.272;2023-03-09T12:52:25;6.72;;;1.73;;
44248;SDS011;29923;48.718;9.272;2023-03-09T12:55:12;6.18;;;0.80;;
44248;SDS011;29923;48.718;9.272;2023-03-09T12:57:40;4.17;;;1.03;;
44248;SDS011;29923;48.718;9.272;2023-03-09T13:02:48;3.03;;;0.80;;
44248;SDS011;29923;48.718;9.272;2023-03-09T13:07:55;6.32;;;1.63;;
44248;SDS011;29923;48.718;9.272;2023-03-09T13:10:26;8.55;;;1.35;;
44248;SDS011;29923;48.718;9.272;2023-03-09T13:12:54;3.53;;;1.48;;
44248;SDS011;29923;48.718;9.272;2023-03-09T13:15:25;6.53;;;1.92;;
44248;SDS011;29923;48.718;9.272;2023-03-09T13:20:34;6.82;;;1.23;;
44248;SDS011;29923;48.718;9.272;2023-03-09T13:23:08;5.93;;;1.00;;
44248;SDS011;29923;48.718;9.272;2023-03-09T13:25:42;3.75;;;1.33;;
44248;SDS011;29923;48.718;9.272;2023-03-09T13:28:15;3.05;;;0.93;;
44248;SDS011;29923;48.718;9.272;2023-03-09T13:30:46;9.73;;;1.45;;
44248;SDS011;29923;48.718;9.272;2023-03-09T13:33:17;10.00;;;1.55;;
44248;SDS011;29923;48.718;9.272;2023-03-09T13:35:49;5.22;;;1.00;;
44248;SDS011;29923;48.718;9.272;2023-03-09T13:38:21;4.10;;;1.10;;
44248;SDS011;29923;48.718;9.272;2023-03-09T13:40:53;3.83;;;0.70;;
44248;SDS011;29923;48.718;9.272;2023-03-09T13:43:22;3.85;;;0.93;;
44248;SDS011;29923;48.718;9.272;2023-03-09T13:45:57;2.28;;;0.77;;
44248;SDS011;29923;48.718;9.272;2023-03-09T13:48:40;5.75;;;1.60;;
44248;SDS011;29923;48.718;9.272;2023-03-09T13:51:24;3.22;;;0.90;;
44248;SDS011;29923;48.718;9.272;2023-03-09T13:53:52;2.63;;;0.85;;
44248;SDS011;29923;48.718;9.272;2023-03-09T13:56:17;7.13;;;1.52;;
44248;SDS011;29923;48.718;9.272;2023-03-09T13:58:43;6.20;;;1.05;;
44248;SDS011;29923;48.718;9.272;2023-03-09T14:01:20;7.43;;;0.90;;
44248;SDS011;29923;48.718;9.272;2023-03-09T14:03:53;5.10;;;1.08;;
44248;SDS011;29923;48.718;9.272;2023-03-09T14:06:28;5.80;;;1.33;;
44248;SDS011;29923;48.718;9.272;2023-03-09T14:08:54;6.50;;;1.27;;
44248;SDS011;29923;48.718;9.272;2023-03-09T14:11:27;3.72;;;1.08;;
44248;SDS011;29923;48.718;9.272;2023-03-09T14:13:57;3.03;;;1.13;;
44248;SDS011;29923;48.718;9.272;2023-03-09T14:16:29;7.00;;;3.65;;
44248;SDS011;29923;48.718;9.272;2023-03-09T14:18:55;4.65;;;1.15;;
44248;SDS011;29923;48.718;9.272;2023-03-09T14:23:54;4.50;;;2.35;;
44248;SDS011;29923;48.718;9.272;2023-03-09T14:26:27;5.07;;;1.40;;
44248;SDS011;29923;48.718;9.272;2023-03-09T14:29:01;4.93;;;1.08;;
44248;SDS011;29923;48.718;9.272;2023-03-09T14:31:38;4.50;;;1.70;;
44248;SDS011;29923;48.718;9.272;2023-03-09T14:36:45;5.28;;;1.10;;
44248;SDS011;29923;48.718;9.272;2023-03-09T14:39:30;7.68;;;1.30;;
44248;SDS011;29923;48.718;9.272;2023-03-09T14:42:01;6.15;;;1.40;;
44248;SDS011;29923;48.718;9.272;2023-03-09T14:44:30;7.05;;;1.60;;
44248;SDS011;29923;48.718;9.272;2023-03-09T14:46:57;5.15;;;0.90;;
44248;SDS011;29923;48.718;9.272;2023-03-09T14:49:22;2.72;;;1.00;;
44248;SDS011;29923;48.718;9.272;2023-03-09T14:51:47;10.20;;;0.90;;
44248;SDS011;29923;48.718;9.272;2023-03-09T14:54:13;5.47;;;1.02;;
44248;SDS011;29923;48.718;9.272;2023-03-09T14:56:39;3.28;;;0.68;;
44248;SDS011;29923;48.718;9.272;2023-03-09T14:59:12;3.58;;;1.15;;
44248;SDS011;29923;48.718;9.272;2023-03-09T15:01:39;6.97;;;1.63;;
44248;SDS011;29923;48.718;9.272;2023-03-09T15:04:08;7.45;;;2.08;;
44248;SDS011;29923;48.718;9.272;2023-03-09T15:06:37;6.82;;;1.13;;
44248;SDS011;29923;48.718;9.272;2023-03-09T15:09:03;4.45;;;0.93;;
44248;SDS011;29923;48.718;9.272;2023-03-09T15:11:29;5.97;;;1.20;;
44248;SDS011;29923;48.718;9.272;2023-03-09T15:13:55;4.53;;;1.02;;
44248;SDS011;29923;48.718;9.272;2023-03-09T15:16:20;7.13;;;1.98;;
44248;SDS011;29923;48.718;9.272;2023-03-09T15:18:45;6.88;;;0.80;;
44248;SDS011;29923;48.718;9.272;2023-03-09T15:21:11;3.92;;;0.95;;
44248;SDS011;29923;48.718;9.272;2023-03-09T15:23:36;7.03;;;1.40;;
44248;SDS011;29923;48.718;9.272;2023-03-09T15:26:03;3.38;;;1.10;;
44248;SDS011;29923;48.718;9.272;2023-03-09T15:28:29;4.43;;;1.08;;
44248;SDS011;29923;48.718;9.272;2023-03-09T15:30:54;5.85;;;1.38;;
44248;SDS011;29923;48.718;9.272;2023-03-09T15:33:19;10.15;;;1.38;;
44248;SDS011;29923;48.718;9.272;2023-03-09T15:35:45;6.03;;;1.60;;
44248;SDS011;29923;48.718;9.272;2023-03-09T15:38:10;7.55;;;1.60;;
44248;SDS011;29923;48.718;9.272;2023-03-09T15:40:38;7.22;;;1.25;;
44248;SDS011;29923;48.718;9.272;2023-03-09T15:43:05;9.07;;;1.50;;
44248;SDS011;29923;48.718;9.272;2023-03-09T15:45:30;6.50;;;1.92;;
44248;SDS011;29923;48.718;9.272;2023-03-09T15:47:55;4.28;;;1.15;;
44248;SDS011;29923;48.718;9.272;2023-03-09T15:50:21;7.18;;;1.27;;
44248;SDS011;29923;48.718;9.272;2023-03-09T15:52:46;11.30;;;2.22;;
44248;SDS011;29923;48.718;9.272;2023-03-09T15:55:11;12.00;;;2.30;;
44248;SDS011;29923;48.718;9.272;2023-03-09T15:57:37;9.30;;;1.80;;